CCGS Sir Wilfrid Laurier — CGJK — position and weather

sailwx.info

Track history (hours):
 
Tides and Currents Weather Stations Pressure Air Temp Water Temp Dewpoint Dewpoint Depression Visibility Wind Speed Wind Dir Waves Ship Positions

Oceanographic research ship CCGS Sir Wilfrid Laurier (Canada)

Detailed information on ship capabilities available from ARCUS's ALIAS (Arctic Logistics Information and Support) project.

Last reported at 2017-Mar-02 18:00 UTC. Time now 2017-Mar-23 23:58 UTC.
Position N 49°18' W 123°06'.
Warning: this ship's position is 21 days out of date.

Length 83 m; beam 16.2 m; draft 6 m.

Type: SAR. MMSI: 316052000.

Wind from 080 at 5 knots

Barometer 1024.9 mb
Air temperature 6.8 ° C
Dewpoint 6.7 ° C

Date/timePositionNaut miles runAvg speedWind from/ knotsBaromVisibWave heightAir tempDewpointWater temp
2017-Mar-02 18:00N 49°18' W 123°06'0 0.0 080 / 51024.9 6.8 6.7
2017-Mar-02 12:00N 49°18' W 123°06'0 0.0 080 / 51027.3 6.2 6.0
2017-Mar-02 06:00N 49°18' W 123°06'0 0.0 060 / 31030.1 5.3 4.9
2017-Mar-02 00:00N 49°18' W 123°06'0 0.0 280 / 31030.0 8.0 3.4
2017-Mar-01 18:00N 49°18' W 123°06'0 0.0 300 / 71027.0 6.8 4.3
2017-Mar-01 12:00N 49°18' W 123°06'0 0.0 320 / 21020.6 6.2 5.7
2017-Mar-01 06:00N 49°18' W 123°06'0 0.0 1019.0 4.0 3.6
2017-Mar-01 00:00N 49°18' W 123°06'1 0.2 1019.7 5.6 0.5
2017-Feb-28 19:05N 49°18' W 123°05'0 0.0
2017-Feb-28 18:32N 49°18' W 123°05'1 1.8
2017-Feb-28 18:00N 49°18' W 123°06'0 0.0 1016.9 2.4 1.6 8.0
2017-Feb-28 17:00N 49°18' W 123°06'1 2.2 1016.0 1.7 0.3 7.9
2017-Feb-28 16:33N 49°18' W 123°05'1 1.8
2017-Feb-28 16:00N 49°18' W 123°06'1 2.1 1014.7 1.8 0.3 7.9
2017-Feb-28 15:33N 49°18' W 123°05'1 1.6
2017-Feb-28 15:00N 49°18' W 123°06'510.9 080 / 61013.5 0.9-0.6 6.5
2017-Feb-28 14:33N 49°19' W 123°13'3 5.6
2017-Feb-28 14:00N 49°18' W 123°18'4 8.8 180 / 71012.8 2.0 1.1 6.3
2017-Feb-28 13:33N 49°14' W 123°19'2 3.9
2017-Feb-28 13:00N 49°12' W 123°18'511.2 130 / 31012.0 1.4 1.2 6.6
2017-Feb-28 12:33N 49°07' W 123°20'2 3.7
2017-Feb-28 12:00N 49°06' W 123°18'4 8.9 100 / 31011.4 2.2 1.8 6.8
2017-Feb-28 11:33N 49°02' W 123°17'915.8
2017-Feb-28 11:00N 48°54' W 123°12'4 9.1 100 / 71010.7 2.4 2.1 6.8
2017-Feb-28 10:33N 48°58' W 123°10'5 8.2
2017-Feb-28 10:00N 48°54' W 123°06'2 4.7 090 / 101009.9 3.3 3.1 7.3
2017-Feb-28 09:33N 48°53' W 123°03'610.2
2017-Feb-28 09:00N 48°48' W 123°00'2 3.9 280 / 41009.4 3.5 0.4 7.4
2017-Feb-28 08:33N 48°47' W 123°01'5 9.8
2017-Feb-28 08:00N 48°42' W 123°06'4 9.9 250 / 91009.0 3.0 1.8 7.9
2017-Feb-28 07:33N 48°42' W 123°12'1 0.9
2017-Feb-28 07:00N 48°42' W 123°12'614.1 270 / 61008.6 3.0 1.9 7.9
2017-Feb-28 06:34N 48°36' W 123°13'610.5
2017-Feb-28 06:00N 48°30' W 123°12'1 3.2 140 / 41008.4 3.3 1.6 7.9
2017-Feb-28 05:33N 48°29' W 123°11'5 9.0
2017-Feb-28 05:00N 48°24' W 123°12'2 3.9 110 / 21007.9 3.6 0.8 8.0
2017-Feb-28 04:33N 48°23' W 123°14'3 4.5
2017-Feb-28 04:00N 48°24' W 123°18'4 8.5 320 / 71007.5 2.6 1.0 7.9
2017-Feb-28 03:33N 48°24' W 123°24'0 0.8
2017-Feb-28 03:00N 48°24' W 123°24'0 0.0 360 / 51006.9 3.3 2.2
2017-Feb-28 02:00N 48°24' W 123°24'0 0.0 010 / 41006.4 3.6 2.3
2017-Feb-28 01:00N 48°24' W 123°24'1 2.8 010 / 81006.0 3.9 2.0
2017-Feb-28 00:32N 48°25' W 123°23'1 2.4
2017-Feb-28 00:00N 48°24' W 123°24'1 1.7 010 / 71005.9 4.2 2.7
2017-Feb-27 23:14N 48°25' W 123°23'1 5.4
2017-Feb-27 23:00N 48°24' W 123°24'1 2.3 360 / 51006.0 3.1 2.6
2017-Feb-27 22:26N 48°25' W 123°23'1 3.0
2017-Feb-27 22:00N 48°24' W 123°24'1 2.8 350 / 91005.3 2.9 2.7
2017-Feb-27 21:32N 48°25' W 123°23'1 2.4
2017-Feb-27 21:00N 48°24' W 123°24'1 2.0 360 / 81005.4 2.2 2.0
2017-Feb-27 20:20N 48°25' W 123°23'1 3.8
2017-Feb-27 20:00N 48°24' W 123°24'1 2.8 340 / 91005.5 1.3 1.2
2017-Feb-27 19:32N 48°25' W 123°23'1 2.4
2017-Feb-27 19:00N 48°24' W 123°24'1 2.8 020 / 61005.8 2.1 1.9
2017-Feb-27 18:32N 48°25' W 123°23'1 2.4
2017-Feb-27 18:00N 48°24' W 123°24'1 2.8 010 / 61006.0 2.3 2.1
2017-Feb-27 17:32N 48°25' W 123°23'1 2.4
2017-Feb-27 17:00N 48°24' W 123°24'1 2.8 360 / 61005.6 3.5 1.8
2017-Feb-27 16:32N 48°25' W 123°23'1 2.4
2017-Feb-27 16:00N 48°24' W 123°24'1 1.5 040 / 31006.1 3.1 0.8
2017-Feb-27 15:08N 48°25' W 123°23'1 9.3
2017-Feb-27 15:00N 48°24' W 123°24'1 2.8 020 / 41006.6 1.5-0.4
2017-Feb-27 14:32N 48°25' W 123°23'1 2.4
2017-Feb-27 14:00N 48°24' W 123°24'1 2.0 020 / 31006.8 1.0-0.9
2017-Feb-27 13:20N 48°25' W 123°23'1 3.8
2017-Feb-27 13:00N 48°24' W 123°24'0 0.0 360 / 31006.9 0.9-0.1
2017-Feb-27 12:00N 48°24' W 123°24'0 0.0 020 / 31007.4 1.3-0.3
2017-Feb-27 11:00N 48°24' W 123°24'0 0.0 360 / 41007.8 0.7-0.8
2017-Feb-27 10:00N 48°24' W 123°24'0 0.0 010 / 31008.3 1.2-0.4
2017-Feb-27 09:00N 48°24' W 123°24'0 0.0 310 / 31008.4 2.1-0.5
2017-Feb-27 08:00N 48°24' W 123°24'0 0.0 010 / 21008.4 2.6 0.3
2017-Feb-27 07:00N 48°24' W 123°24'0 0.0 350 / 11008.4 3.3-0.1
2017-Feb-27 06:00N 48°24' W 123°24'0 0.0 330 / 21008.7 4.0-0.6
2017-Feb-27 05:00N 48°24' W 123°24'0 0.0 360 / 41008.4 4.6-0.0
2017-Feb-27 04:00N 48°24' W 123°24'0 0.0 360 / 61008.3 5.0 0.5
2017-Feb-27 03:00N 48°24' W 123°24'0 0.0 350 / 41008.1 5.7 0.8
2017-Feb-27 02:00N 48°24' W 123°24'0 0.0 340 / 51007.7 6.8-0.4
2017-Feb-27 01:00N 48°24' W 123°24'0 0.0 020 / 101007.4 7.8-1.2
2017-Feb-27 00:00N 48°24' W 123°24'0 0.0 020 / 121007.0 8.6-0.1
2017-Feb-26 23:00N 48°24' W 123°24'0 0.0 010 / 151006.6 8.5 0.4
2017-Feb-26 22:00N 48°24' W 123°24'0 0.0 030 / 151006.6 8.2-0.0
2017-Feb-26 21:00N 48°24' W 123°24'1 2.3 020 / 161006.8 7.0 1.1
2017-Feb-26 20:26N 48°25' W 123°23'1 3.0
2017-Feb-26 20:00N 48°24' W 123°24'1 2.8 020 / 171007.2 6.2 1.9
2017-Feb-26 19:32N 48°25' W 123°23'1 2.4
2017-Feb-26 19:00N 48°24' W 123°24'1 2.1 040 / 91007.1 5.7 3.6
2017-Feb-26 18:23N 48°25' W 123°23'1 3.3
2017-Feb-26 18:00N 48°24' W 123°24'1 1.6 040 / 121006.9 5.2 3.9
2017-Feb-26 17:11N 48°25' W 123°23'1 6.8
2017-Feb-26 17:00N 48°24' W 123°24'0 0.0 040 / 101006.5 3.9 3.7
2017-Feb-26 16:00N 48°24' W 123°24'1 2.8 040 / 81006.1 3.6 3.4
2017-Feb-26 15:32N 48°25' W 123°23'1 2.4
2017-Feb-26 15:00N 48°24' W 123°24'1 1.7 050 / 91005.7 3.6 3.4
2017-Feb-26 14:14N 48°25' W 123°23'1 5.4
2017-Feb-26 14:00N 48°24' W 123°24'1 2.8 040 / 91005.8 3.6 3.5
2017-Feb-26 13:32N 48°25' W 123°23'1 2.4
2017-Feb-26 13:00N 48°24' W 123°24'1 2.6 050 / 81006.1 3.2 3.0
2017-Feb-26 12:29N 48°25' W 123°23'1 2.7
2017-Feb-26 12:00N 48°24' W 123°24'1 2.8 050 / 71006.8 3.2 3.0
2017-Feb-26 11:32N 48°25' W 123°23'1 2.4
2017-Feb-26 11:00N 48°24' W 123°24'0 0.0 070 / 61007.7 3.1 2.9
2017-Feb-26 10:00N 48°24' W 123°24'1 1.5 100 / 51008.8 3.2 3.0
2017-Feb-26 09:08N 48°25' W 123°23'1 9.3
2017-Feb-26 09:00N 48°24' W 123°24'1 2.6 180 / 61010.0 3.4 3.1
2017-Feb-26 08:29N 48°25' W 123°23'1 2.7
2017-Feb-26 08:00N 48°24' W 123°24'1 2.6 250 / 91010.9 4.1 3.2
2017-Feb-26 07:29N 48°25' W 123°23'1 2.7
2017-Feb-26 07:00N 48°24' W 123°24'1 2.5 260 / 71012.1 4.3 3.2
2017-Feb-26 06:29N 48°25' W 123°23'1 2.7
2017-Feb-26 06:00N 48°24' W 123°24'1 2.6 250 / 71013.1 4.1 3.2
2017-Feb-26 05:29N 48°25' W 123°23'1 2.7
2017-Feb-26 05:00N 48°24' W 123°24'0 0.0 250 / 71013.9 4.7 3.2
2017-Feb-26 04:00N 48°24' W 123°24'1 2.3 240 / 61014.7 5.2 3.6
2017-Feb-26 03:26N 48°25' W 123°23'1 3.0
2017-Feb-26 03:00N 48°24' W 123°24'1 1.8 240 / 91015.9 4.8 2.9
2017-Feb-26 02:17N 48°25' W 123°23'1 4.5
2017-Feb-26 02:00N 48°24' W 123°24'1 2.6 260 / 121016.7 5.1 3.4
2017-Feb-26 01:29N 48°25' W 123°23'1 2.7
2017-Feb-26 01:00N 48°24' W 123°24'1 2.0 250 / 141017.7 5.5 2.9
2017-Feb-26 00:20N 48°25' W 123°23'1 3.8
2017-Feb-26 00:00N 48°24' W 123°24'1 2.8 240 / 161018.7 5.0 3.2
2017-Feb-25 23:32N 48°25' W 123°23'1 2.4
2017-Feb-25 23:00N 48°24' W 123°24'1 2.8 250 / 141019.7 6.3 1.5
2017-Feb-25 22:32N 48°25' W 123°23'1 2.4
2017-Feb-25 22:00N 48°24' W 123°24'1 2.6 240 / 151020.2 6.5 0.7
2017-Feb-25 21:29N 48°25' W 123°23'1 2.7
2017-Feb-25 21:00N 48°24' W 123°24'1 1.7 230 / 181021.9 6.7-0.9
2017-Feb-25 20:14N 48°25' W 123°23'1 5.4
2017-Feb-25 20:00N 48°24' W 123°24'0 0.0 240 / 51023.0 4.4 2.5
2017-Feb-25 19:00N 48°24' W 123°24'0 0.0 190 / 71023.4 5.4 1.6
2017-Feb-25 18:00N 48°24' W 123°24'0 0.0 180 / 51024.0 4.5 2.2
2017-Feb-25 17:00N 48°24' W 123°24'0 0.0 1024.6 4.0 1.4
2017-Feb-25 16:00N 48°24' W 123°24'0 0.0 020 / 21024.9 2.7 0.8
2017-Feb-25 15:00N 48°24' W 123°24'1 1.5 020 / 31024.7 2.4 0.5
2017-Feb-25 14:08N 48°25' W 123°23'1 9.3
2017-Feb-25 14:00N 48°24' W 123°24'1 2.8 030 / 41024.7 2.3 0.4
2017-Feb-25 13:32N 48°25' W 123°23'1 2.4
2017-Feb-25 13:00N 48°24' W 123°24'0 0.0 010 / 31025.0 3.0 1.0
2017-Feb-25 12:00N 48°24' W 123°24'0 0.0 300 / 31025.2 3.4 0.1
2017-Feb-25 11:00N 48°24' W 123°24'1 1.7 350 / 31025.5 4.1 0.3
2017-Feb-25 10:14N 48°25' W 123°23'1 5.4
2017-Feb-25 10:00N 48°24' W 123°24'1 2.8 010 / 71025.4 4.4 0.5
2017-Feb-25 09:32N 48°25' W 123°23'1 2.4
2017-Feb-25 09:00N 48°24' W 123°24'1 2.8 010 / 81025.4 4.3 1.1
2017-Feb-25 08:32N 48°25' W 123°23'1 2.4
2017-Feb-25 08:00N 48°24' W 123°24'1 2.8 360 / 91024.9 4.3 1.5
2017-Feb-25 07:32N 48°25' W 123°23'1 2.4
2017-Feb-25 07:00N 48°24' W 123°24'1 2.8 360 / 91024.9 4.9 1.9
2017-Feb-25 06:32N 48°25' W 123°23'1 2.4
2017-Feb-25 06:00N 48°24' W 123°24'0 0.0 360 / 81024.9 5.1 2.3
2017-Feb-25 05:00N 48°24' W 123°24'0 0.0 010 / 101024.6 5.6 2.2
2017-Feb-25 04:00N 48°24' W 123°24'0 0.0 360 / 101023.8 5.4 2.8
2017-Feb-25 03:00N 48°24' W 123°24'1 2.0 010 / 111023.5 5.9 2.6
2017-Feb-25 02:20N 48°25' W 123°23'1 3.8
2017-Feb-25 02:00N 48°24' W 123°24'1 2.3 010 / 91022.9 6.6 1.7
2017-Feb-25 01:26N 48°25' W 123°23'1 3.0
2017-Feb-25 01:00N 48°24' W 123°24'1 2.3 030 / 71022.6 7.0 1.1
2017-Feb-25 00:26N 48°25' W 123°23'1 3.0
2017-Feb-25 00:00N 48°24' W 123°24'0 0.0 040 / 81022.4 7.0 1.5
2017-Feb-24 23:00N 48°24' W 123°24'0 0.0 090 / 91022.0 5.6 1.4 8.8
2017-Feb-24 22:00N 48°24' W 123°24'0 0.0 090 / 81022.0 5.5 1.6 8.8
2017-Feb-24 21:00N 48°24' W 123°24'1 2.5 090 / 101022.0 5.3 1.7 8.6
2017-Feb-24 20:28N 48°25' W 123°23'1 2.8
2017-Feb-24 20:00N 48°24' W 123°24'3 6.9 110 / 141021.6 5.7 3.2 8.3
2017-Feb-24 19:33N 48°21' W 123°24'915.4
2017-Feb-24 19:00N 48°18' W 123°36'510.8 070 / 171020.3 4.4 1.7 8.3
2017-Feb-24 18:33N 48°19' W 123°43'713.0
2017-Feb-24 18:00N 48°18' W 123°54'716.4 080 / 141019.9 4.5 2.2 8.3
2017-Feb-24 17:33N 48°22' W 124°03'711.5
2017-Feb-24 17:00N 48°24' W 124°12'716.4 100 / 91019.6 4.1 1.6 8.3
2017-Feb-24 16:33N 48°28' W 124°21'611.0
2017-Feb-24 16:00N 48°30' W 124°30'716.0 120 / 121019.3 2.5 2.3 8.2
2017-Feb-24 15:33N 48°33' W 124°40'611.4
2017-Feb-24 15:00N 48°36' W 124°48'715.2 140 / 121018.8 3.1 2.9 8.6
2017-Feb-24 14:33N 48°37' W 124°58'712.7
2017-Feb-24 14:00N 48°42' W 125°06'510.7 100 / 151018.6 3.3 2.3 8.9
2017-Feb-24 13:33N 48°41' W 125°13'3 5.9
2017-Feb-24 13:00N 48°42' W 125°18'716.5 070 / 51018.8 2.7 1.5 8.6
2017-Feb-24 12:33N 48°49' W 125°16'6 9.9
2017-Feb-24 12:00N 48°54' W 125°12'511.5 080 / 91019.1 3.2 0.6 7.5
2017-Feb-24 11:33N 48°57' W 125°18'3 5.5
2017-Feb-24 11:00N 48°54' W 125°18'510.4 340 / 61019.4 3.2 0.1
2017-Feb-24 10:31N 48°59' W 125°19'5 9.2
2017-Feb-24 10:00N 48°54' W 125°18'510.3 070 / 81019.7 4.0-0.6
2017-Feb-24 09:31N 48°59' W 125°19'5 9.1
2017-Feb-24 09:00N 48°54' W 125°18'510.3 030 / 51020.1 3.2 1.2
2017-Feb-24 08:31N 48°59' W 125°19'5 9.1
2017-Feb-24 08:00N 48°54' W 125°18'510.4 030 / 61020.4 2.9 0.6
2017-Feb-24 07:31N 48°59' W 125°19'5 9.2
2017-Feb-24 07:00N 48°54' W 125°18'510.4 070 / 21020.7 2.9 1.2
2017-Feb-24 06:31N 48°59' W 125°19'5 9.2
2017-Feb-24 06:00N 48°54' W 125°18'510.3 020 / 41021.3 3.0 0.6
2017-Feb-24 05:31N 48°59' W 125°19'5 9.2
2017-Feb-24 05:00N 48°54' W 125°18'510.4 040 / 51021.4 3.7 0.3
2017-Feb-24 04:31N 48°59' W 125°19'5 9.2
2017-Feb-24 04:00N 48°54' W 125°18'0 0.0 360 / 11021.7 4.0-1.2
2017-Feb-24 03:00N 48°54' W 125°18'510.4 110 / 61022.2 4.4-1.9
2017-Feb-24 02:31N 48°59' W 125°19'5 9.2
2017-Feb-24 02:00N 48°54' W 125°18'510.4 250 / 61022.7 5.3-2.6
2017-Feb-24 01:31N 48°59' W 125°19'5 9.2
2017-Feb-24 01:00N 48°54' W 125°18'510.4 240 / 111023.3 5.7 0.3
2017-Feb-24 00:31N 48°59' W 125°19'5 9.2
2017-Feb-24 00:00N 48°54' W 125°18'5 9.4 230 / 101023.5 6.4 0.1
2017-Feb-23 23:28N 48°59' W 125°19'510.2
2017-Feb-23 23:00N 48°54' W 125°18'510.4 220 / 101023.8 6.2 0.4
2017-Feb-23 22:31N 48°59' W 125°19'5 9.2
2017-Feb-23 22:00N 48°54' W 125°18'510.4 220 / 91024.2 6.2 0.1
2017-Feb-23 21:31N 48°59' W 125°19'5 9.2
2017-Feb-23 21:00N 48°54' W 125°18'510.4 220 / 61024.6 6.2-1.1
2017-Feb-23 20:31N 48°59' W 125°19'5 9.2
2017-Feb-23 20:00N 48°54' W 125°18'510.4 180 / 41025.3 5.9-0.8
2017-Feb-23 19:31N 48°59' W 125°19'5 9.2
2017-Feb-23 19:00N 48°54' W 125°18'510.4 160 / 41025.5 4.1 0.6
2017-Feb-23 18:31N 48°59' W 125°19'5 9.2
2017-Feb-23 18:00N 48°54' W 125°18'5 9.3 190 / 21025.2 3.7 1.4
2017-Feb-23 17:28N 48°59' W 125°19'510.1
2017-Feb-23 17:00N 48°54' W 125°18'510.3 140 / 11024.9 4.4 2.8
2017-Feb-23 16:31N 48°59' W 125°19'5 9.1
2017-Feb-23 16:00N 48°54' W 125°18'510.3 320 / 21024.8 2.3 1.9
2017-Feb-23 15:31N 48°59' W 125°19'5 9.1
2017-Feb-23 15:00N 48°54' W 125°18'510.3 090 / 11024.5 1.4 1.3
2017-Feb-23 14:31N 48°59' W 125°19'5 9.1
2017-Feb-23 14:00N 48°54' W 125°18'510.3 030 / 21024.3 1.5 1.3
2017-Feb-23 13:31N 48°59' W 125°19'5 9.1
2017-Feb-23 13:00N 48°54' W 125°18'510.3 020 / 41024.3 1.9 1.6
2017-Feb-23 12:31N 48°59' W 125°19'5 9.1
2017-Feb-23 12:00N 48°54' W 125°18'510.3 350 / 21024.1 1.7 1.5
2017-Feb-23 11:31N 48°59' W 125°19'5 9.1
2017-Feb-23 11:00N 48°54' W 125°18'510.3 080 / 11024.1 1.9 1.8
2017-Feb-23 10:31N 48°59' W 125°19'5 9.1
2017-Feb-23 10:00N 48°54' W 125°18'510.3 020 / 31024.0 1.9 1.7
2017-Feb-23 09:31N 48°59' W 125°19'5 9.1
2017-Feb-23 09:00N 48°54' W 125°18'5 9.3 020 / 31024.0 2.3 2.1
2017-Feb-23 08:28N 48°59' W 125°19'510.1
2017-Feb-23 08:00N 48°54' W 125°18'510.3 060 / 31023.9 2.5 2.3
2017-Feb-23 07:31N 48°59' W 125°19'5 9.1
2017-Feb-23 07:00N 48°54' W 125°18'5 6.3 010 / 51023.7 2.9 2.5
2017-Feb-23 06:13N 48°59' W 125°19'521.0
2017-Feb-23 06:00N 48°54' W 125°18'5 9.3 020 / 61023.6 3.4 2.9
2017-Feb-23 05:28N 48°59' W 125°19'510.1
2017-Feb-23 05:00N 48°54' W 125°18'510.3 360 / 51023.2 3.9 3.1
2017-Feb-23 04:31N 48°59' W 125°19'5 9.1
2017-Feb-23 04:00N 48°54' W 125°18'510.3 060 / 31023.2 4.7 3.5 7.9
2017-Feb-23 03:31N 48°59' W 125°19'5 9.1
2017-Feb-23 03:00N 48°54' W 125°18'5 9.3 040 / 41023.2 4.9 3.6 7.9
2017-Feb-23 02:28N 48°59' W 125°19'510.1
2017-Feb-23 02:00N 48°54' W 125°18'510.5 360 / 61023.0 5.8 2.5 8.3
2017-Feb-23 01:32N 48°59' W 125°19'610.2
2017-Feb-23 01:00N 48°54' W 125°24'3 6.4 290 / 91022.8 5.7 2.7 8.6
2017-Feb-23 00:34N 48°52' W 125°27'610.7
2017-Feb-23 00:00N 48°54' W 125°36'2 5.0 290 / 81023.0 6.6 2.6 8.7
2017-Feb-22 23:33N 48°55' W 125°33'610.7
2017-Feb-22 23:00N 48°54' W 125°42'4 8.4 270 / 81022.9 6.6 2.8 8.9
2017-Feb-22 22:33N 48°57' W 125°40'4 6.5
2017-Feb-22 22:00N 48°54' W 125°42'4 8.7 200 / 41022.8 6.6 3.3 8.9
2017-Feb-22 21:33N 48°57' W 125°40'4 6.7
2017-Feb-22 21:00N 48°54' W 125°42'4 8.1 180 / 71022.7 5.9 3.6 8.6
2017-Feb-22 20:33N 48°57' W 125°39'611.3
2017-Feb-22 20:00N 48°54' W 125°30'1 2.9 140 / 41022.8 5.4 3.3 8.2
2017-Feb-22 19:33N 48°55' W 125°31'1 2.2
2017-Feb-22 19:00N 48°54' W 125°30'2 3.8 120 / 71022.7 4.9 3.3
2017-Feb-22 18:33N 48°55' W 125°32'2 2.9
2017-Feb-22 18:00N 48°54' W 125°30'2 3.8 110 / 81022.5 4.5 2.3 8.4
2017-Feb-22 17:34N 48°55' W 125°32'2 2.9
2017-Feb-22 17:00N 48°54' W 125°30'2 3.7 080 / 81022.2 4.3 2.1 8.9
2017-Feb-22 16:34N 48°55' W 125°32'2 2.9
2017-Feb-22 16:00N 48°54' W 125°30'1 2.7 080 / 41022.1 3.4 2.8 8.3
2017-Feb-22 15:33N 48°55' W 125°31'1 2.1
2017-Feb-22 15:00N 48°54' W 125°30'4 8.4 060 / 81021.7 3.7 3.3 8.3
2017-Feb-22 14:33N 48°53' W 125°35'4 7.8
2017-Feb-22 14:00N 48°54' W 125°42'3 7.4 050 / 41021.8 4.1 3.4 8.4
2017-Feb-22 13:33N 48°57' W 125°45'3 6.0
2017-Feb-22 13:00N 48°54' W 125°48'716.2 040 / 51021.9 5.0 3.9 8.5
2017-Feb-22 12:33N 49°00' W 125°53'0 0.6
2017-Feb-22 12:00N 49°00' W 125°54'614.8 320 / 121021.8 5.1 2.5 8.5
2017-Feb-22 11:33N 49°03' W 126°03'4 6.4
2017-Feb-22 11:00N 49°06' W 126°06'8 7.9 330 / 81021.7 5.0 2.2 8.5
2017-Feb-22 10:00N 49°06' W 126°18'7 7.2 260 / 111021.7 5.4 3.0 8.7
2017-Feb-22 09:00N 49°12' W 126°24'8 7.8 320 / 111021.3 6.0 2.0 8.8
2017-Feb-22 08:00N 49°12' W 126°36'10 9.9 320 / 131020.8 6.1 1.6 8.5
2017-Feb-22 07:00N 49°18' W 126°48'7 7.2 320 / 141020.7 6.3 1.7 8.5
2017-Feb-22 06:00N 49°24' W 126°54'6 6.0 310 / 151020.2 6.8 1.7 8.5
2017-Feb-22 05:00N 49°30' W 126°54'1312.6 310 / 181019.5 6.7 3.2 8.3
2017-Feb-22 04:00N 49°42' W 127°00'6 6.0 320 / 161019.0 6.2 3.2 8.1
2017-Feb-22 03:00N 49°48' W 127°00'0 0.0 310 / 141018.4 5.9 3.1 7.8
2017-Feb-22 02:00N 49°48' W 127°00'0 0.0 280 / 141017.4 6.4 1.7
2017-Feb-22 01:00N 49°48' W 127°00'0 0.0 270 / 131017.0 6.5 2.8
2017-Feb-22 00:00N 49°48' W 127°00'0 0.0 260 / 161016.4 6.7 2.7
2017-Feb-21 23:00N 49°48' W 127°00'0 0.0 260 / 151015.9 6.9 2.4
2017-Feb-21 22:00N 49°48' W 127°00'0 0.0 270 / 81015.5 6.2 2.0
2017-Feb-21 21:00N 49°48' W 127°00'0 0.0 240 / 41015.5 7.3 3.6
2017-Feb-21 20:00N 49°48' W 127°00'0 0.0 030 / 31015.2 5.7 2.8
2017-Feb-21 19:00N 49°48' W 127°00'0 0.0 110 / 31014.4 4.9 2.1
2017-Feb-21 18:00N 49°48' W 127°00'0 0.0 090 / 71013.4 3.7 2.1 7.4
2017-Feb-21 17:00N 49°48' W 127°00'0 0.0 070 / 81012.5 2.4 1.5 7.4
2017-Feb-21 16:00N 49°48' W 127°00'4 3.9 070 / 81011.6 1.9 1.2 7.5
2017-Feb-21 15:00N 49°48' W 127°06'4 3.9 060 / 111011.2 3.3 2.5 7.8
2017-Feb-21 14:00N 49°48' W 127°12'10 9.8 100 / 21010.9 4.0 2.6 7.7
2017-Feb-21 13:00N 49°54' W 127°24'1211.6 050 / 61010.5 4.4 2.5 7.4
2017-Feb-21 12:00N 49°54' W 127°42'8 7.7 070 / 21010.2 5.1 2.6 7.5
2017-Feb-21 11:00N 49°54' W 127°54'1414.3 100 / 61009.9 5.3 3.0 7.6
2017-Feb-21 10:00N 50°06' W 128°06'1312.6 300 / 51009.4 6.1 2.0 8.0
2017-Feb-21 09:00N 50°18' W 128°12'7 7.1 290 / 181009.1 5.2 2.8 8.0
2017-Feb-21 08:00N 50°24' W 128°18'1414.2 250 / 91008.1 6.2 1.8 8.4
2017-Feb-21 07:00N 50°36' W 128°30'1212.0 240 / 81007.7 6.2 2.1 8.3
2017-Feb-21 06:00N 50°48' W 128°30'10 9.7 210 / 121007.1 5.8 2.2 8.2
2017-Feb-21 05:00N 50°54' W 128°18'511.8 190 / 71006.9 4.8 2.2 8.4
2017-Feb-21 04:33N 50°55' W 128°10'611.3
2017-Feb-21 04:00N 50°54' W 128°00'613.5 210 / 101006.7 5.7 1.4 8.2
2017-Feb-21 03:32N 50°59' W 127°54'611.4
2017-Feb-21 03:00N 50°54' W 127°48'613.1 220 / 21006.6 5.2 3.9 8.1
2017-Feb-21 02:33N 50°54' W 127°39'814.9
2017-Feb-21 02:00N 50°48' W 127°30'2 4.9 290 / 71006.0 5.4 3.2 8.0
2017-Feb-21 01:33N 50°47' W 127°27'610.5
2017-Feb-21 01:00N 50°42' W 127°30'2 4.6 320 / 71005.7 5.7 2.5 8.2
2017-Feb-21 00:32N 50°44' W 127°28'2 4.0
2017-Feb-21 00:00N 50°42' W 127°30'4 8.2 030 / 41005.1 6.5 1.9 8.1
2017-Feb-20 23:32N 50°46' W 127°28'5 9.9
2017-Feb-20 23:00N 50°48' W 127°36'511.3 130 / 51004.5 6.5 2.4 8.2
2017-Feb-20 22:33N 50°53' W 127°37'3 5.8
2017-Feb-20 22:00N 50°54' W 127°42'818.3 130 / 31004.3 6.4 2.4 8.2
2017-Feb-20 21:33N 51°01' W 127°37'2 2.8
2017-Feb-20 21:00N 51°00' W 127°36'2 4.9 140 / 51004.0 6.4 2.1 8.0
2017-Feb-20 20:33N 51°02' W 127°38'2 3.8
2017-Feb-20 20:00N 51°00' W 127°36'2 5.2 110 / 51003.8 5.8 4.9 7.9
2017-Feb-20 19:33N 51°02' W 127°37'2 4.0
2017-Feb-20 19:00N 51°00' W 127°36'1 3.4 090 / 71003.0 5.0 4.9 7.9
2017-Feb-20 18:33N 50°59' W 127°38'5 9.7
2017-Feb-20 18:00N 50°54' W 127°36'   110 / 51002.6 5.1 3.6 8.0
Track history (hours):
 
Tides and Currents Weather Stations Pressure Air Temp Water Temp Dewpoint Dewpoint Depression Visibility Wind Speed Wind Dir Waves Ship Positions

Oceanographic research ship CCGS Sir Wilfrid Laurier (Canada)

Detailed information on ship capabilities available from ARCUS's ALIAS (Arctic Logistics Information and Support) project.

Last reported at 2017-Mar-02 18:00 UTC. Time now 2017-Mar-23 23:59 UTC.
Position N 49°18' W 123°06'.
Warning: this ship's position is 21 days out of date.

Length 83 m; beam 16.2 m; draft 6 m.

Type: SAR. MMSI: 316052000.

Wind from 080 at 5 knots

Barometer 1024.9 mb
Air temperature 6.8 ° C
Dewpoint 6.7 ° C

Date/timePositionNaut miles runAvg speedWind from/ knotsBaromVisibWave heightAir tempDewpointWater temp
2017-Mar-02 18:00N 49°18' W 123°06'0 0.0 080 / 51024.9 6.8 6.7
2017-Mar-02 12:00N 49°18' W 123°06'0 0.0 080 / 51027.3 6.2 6.0
2017-Mar-02 06:00N 49°18' W 123°06'0 0.0 060 / 31030.1 5.3 4.9
2017-Mar-02 00:00N 49°18' W 123°06'0 0.0 280 / 31030.0 8.0 3.4
2017-Mar-01 18:00N 49°18' W 123°06'0 0.0 300 / 71027.0 6.8 4.3
2017-Mar-01 12:00N 49°18' W 123°06'0 0.0 320 / 21020.6 6.2 5.7
2017-Mar-01 06:00N 49°18' W 123°06'0 0.0 1019.0 4.0 3.6
2017-Mar-01 00:00N 49°18' W 123°06'1 0.2 1019.7 5.6 0.5
2017-Feb-28 19:05N 49°18' W 123°05'0 0.0
2017-Feb-28 18:32N 49°18' W 123°05'1 1.8
2017-Feb-28 18:00N 49°18' W 123°06'0 0.0 1016.9 2.4 1.6 8.0
2017-Feb-28 17:00N 49°18' W 123°06'1 2.2 1016.0 1.7 0.3 7.9
2017-Feb-28 16:33N 49°18' W 123°05'1 1.8
2017-Feb-28 16:00N 49°18' W 123°06'1 2.1 1014.7 1.8 0.3 7.9
2017-Feb-28 15:33N 49°18' W 123°05'1 1.6
2017-Feb-28 15:00N 49°18' W 123°06'510.9 080 / 61013.5 0.9-0.6 6.5
2017-Feb-28 14:33N 49°19' W 123°13'3 5.6
2017-Feb-28 14:00N 49°18' W 123°18'4 8.8 180 / 71012.8 2.0 1.1 6.3
2017-Feb-28 13:33N 49°14' W 123°19'2 3.9
2017-Feb-28 13:00N 49°12' W 123°18'511.2 130 / 31012.0 1.4 1.2 6.6
2017-Feb-28 12:33N 49°07' W 123°20'2 3.7
2017-Feb-28 12:00N 49°06' W 123°18'4 8.9 100 / 31011.4 2.2 1.8 6.8
2017-Feb-28 11:33N 49°02' W 123°17'915.8
2017-Feb-28 11:00N 48°54' W 123°12'4 9.1 100 / 71010.7 2.4 2.1 6.8
2017-Feb-28 10:33N 48°58' W 123°10'5 8.2
2017-Feb-28 10:00N 48°54' W 123°06'2 4.7 090 / 101009.9 3.3 3.1 7.3
2017-Feb-28 09:33N 48°53' W 123°03'610.2
2017-Feb-28 09:00N 48°48' W 123°00'2 3.9 280 / 41009.4 3.5 0.4 7.4
2017-Feb-28 08:33N 48°47' W 123°01'5 9.8
2017-Feb-28 08:00N 48°42' W 123°06'4 9.9 250 / 91009.0 3.0 1.8 7.9
2017-Feb-28 07:33N 48°42' W 123°12'1 0.9
2017-Feb-28 07:00N 48°42' W 123°12'614.1 270 / 61008.6 3.0 1.9 7.9
2017-Feb-28 06:34N 48°36' W 123°13'610.5
2017-Feb-28 06:00N 48°30' W 123°12'1 3.2 140 / 41008.4 3.3 1.6 7.9
2017-Feb-28 05:33N 48°29' W 123°11'5 9.0
2017-Feb-28 05:00N 48°24' W 123°12'2 3.9 110 / 21007.9 3.6 0.8 8.0
2017-Feb-28 04:33N 48°23' W 123°14'3 4.5
2017-Feb-28 04:00N 48°24' W 123°18'4 8.5 320 / 71007.5 2.6 1.0 7.9
2017-Feb-28 03:33N 48°24' W 123°24'0 0.8
2017-Feb-28 03:00N 48°24' W 123°24'0 0.0 360 / 51006.9 3.3 2.2
2017-Feb-28 02:00N 48°24' W 123°24'0 0.0 010 / 41006.4 3.6 2.3
2017-Feb-28 01:00N 48°24' W 123°24'1 2.8 010 / 81006.0 3.9 2.0
2017-Feb-28 00:32N 48°25' W 123°23'1 2.4
2017-Feb-28 00:00N 48°24' W 123°24'1 1.7 010 / 71005.9 4.2 2.7
2017-Feb-27 23:14N 48°25' W 123°23'1 5.4
2017-Feb-27 23:00N 48°24' W 123°24'1 2.3 360 / 51006.0 3.1 2.6
2017-Feb-27 22:26N 48°25' W 123°23'1 3.0
2017-Feb-27 22:00N 48°24' W 123°24'1 2.8 350 / 91005.3 2.9 2.7
2017-Feb-27 21:32N 48°25' W 123°23'1 2.4
2017-Feb-27 21:00N 48°24' W 123°24'1 2.0 360 / 81005.4 2.2 2.0
2017-Feb-27 20:20N 48°25' W 123°23'1 3.8
2017-Feb-27 20:00N 48°24' W 123°24'1 2.8 340 / 91005.5 1.3 1.2
2017-Feb-27 19:32N 48°25' W 123°23'1 2.4
2017-Feb-27 19:00N 48°24' W 123°24'1 2.8 020 / 61005.8 2.1 1.9
2017-Feb-27 18:32N 48°25' W 123°23'1 2.4
2017-Feb-27 18:00N 48°24' W 123°24'1 2.8 010 / 61006.0 2.3 2.1
2017-Feb-27 17:32N 48°25' W 123°23'1 2.4
2017-Feb-27 17:00N 48°24' W 123°24'1 2.8 360 / 61005.6 3.5 1.8
2017-Feb-27 16:32N 48°25' W 123°23'1 2.4
2017-Feb-27 16:00N 48°24' W 123°24'1 1.5 040 / 31006.1 3.1 0.8
2017-Feb-27 15:08N 48°25' W 123°23'1 9.3
2017-Feb-27 15:00N 48°24' W 123°24'1 2.8 020 / 41006.6 1.5-0.4
2017-Feb-27 14:32N 48°25' W 123°23'1 2.4
2017-Feb-27 14:00N 48°24' W 123°24'1 2.0 020 / 31006.8 1.0-0.9
2017-Feb-27 13:20N 48°25' W 123°23'1 3.8
2017-Feb-27 13:00N 48°24' W 123°24'0 0.0 360 / 31006.9 0.9-0.1
2017-Feb-27 12:00N 48°24' W 123°24'0 0.0 020 / 31007.4 1.3-0.3
2017-Feb-27 11:00N 48°24' W 123°24'0 0.0 360 / 41007.8 0.7-0.8
2017-Feb-27 10:00N 48°24' W 123°24'0 0.0 010 / 31008.3 1.2-0.4
2017-Feb-27 09:00N 48°24' W 123°24'0 0.0 310 / 31008.4 2.1-0.5
2017-Feb-27 08:00N 48°24' W 123°24'0 0.0 010 / 21008.4 2.6 0.3
2017-Feb-27 07:00N 48°24' W 123°24'0 0.0 350 / 11008.4 3.3-0.1
2017-Feb-27 06:00N 48°24' W 123°24'0 0.0 330 / 21008.7 4.0-0.6
2017-Feb-27 05:00N 48°24' W 123°24'0 0.0 360 / 41008.4 4.6-0.0
2017-Feb-27 04:00N 48°24' W 123°24'0 0.0 360 / 61008.3 5.0 0.5
2017-Feb-27 03:00N 48°24' W 123°24'0 0.0 350 / 41008.1 5.7 0.8
2017-Feb-27 02:00N 48°24' W 123°24'0 0.0 340 / 51007.7 6.8-0.4
2017-Feb-27 01:00N 48°24' W 123°24'0 0.0 020 / 101007.4 7.8-1.2
2017-Feb-27 00:00N 48°24' W 123°24'0 0.0 020 / 121007.0 8.6-0.1
2017-Feb-26 23:00N 48°24' W 123°24'0 0.0 010 / 151006.6 8.5 0.4
2017-Feb-26 22:00N 48°24' W 123°24'0 0.0 030 / 151006.6 8.2-0.0
2017-Feb-26 21:00N 48°24' W 123°24'1 2.3 020 / 161006.8 7.0 1.1
2017-Feb-26 20:26N 48°25' W 123°23'1 3.0
2017-Feb-26 20:00N 48°24' W 123°24'1 2.8 020 / 171007.2 6.2 1.9
2017-Feb-26 19:32N 48°25' W 123°23'1 2.4
2017-Feb-26 19:00N 48°24' W 123°24'1 2.1 040 / 91007.1 5.7 3.6
2017-Feb-26 18:23N 48°25' W 123°23'1 3.3
2017-Feb-26 18:00N 48°24' W 123°24'1 1.6 040 / 121006.9 5.2 3.9
2017-Feb-26 17:11N 48°25' W 123°23'1 6.8
2017-Feb-26 17:00N 48°24' W 123°24'0 0.0 040 / 101006.5 3.9 3.7
2017-Feb-26 16:00N 48°24' W 123°24'1 2.8 040 / 81006.1 3.6 3.4
2017-Feb-26 15:32N 48°25' W 123°23'1 2.4
2017-Feb-26 15:00N 48°24' W 123°24'1 1.7 050 / 91005.7 3.6 3.4
2017-Feb-26 14:14N 48°25' W 123°23'1 5.4
2017-Feb-26 14:00N 48°24' W 123°24'1 2.8 040 / 91005.8 3.6 3.5
2017-Feb-26 13:32N 48°25' W 123°23'1 2.4
2017-Feb-26 13:00N 48°24' W 123°24'1 2.6 050 / 81006.1 3.2 3.0
2017-Feb-26 12:29N 48°25' W 123°23'1 2.7
2017-Feb-26 12:00N 48°24' W 123°24'1 2.8 050 / 71006.8 3.2 3.0
2017-Feb-26 11:32N 48°25' W 123°23'1 2.4
2017-Feb-26 11:00N 48°24' W 123°24'0 0.0 070 / 61007.7 3.1 2.9
2017-Feb-26 10:00N 48°24' W 123°24'1 1.5 100 / 51008.8 3.2 3.0
2017-Feb-26 09:08N 48°25' W 123°23'1 9.3
2017-Feb-26 09:00N 48°24' W 123°24'1 2.6 180 / 61010.0 3.4 3.1
2017-Feb-26 08:29N 48°25' W 123°23'1 2.7
2017-Feb-26 08:00N 48°24' W 123°24'1 2.6 250 / 91010.9 4.1 3.2
2017-Feb-26 07:29N 48°25' W 123°23'1 2.7
2017-Feb-26 07:00N 48°24' W 123°24'1 2.5 260 / 71012.1 4.3 3.2
2017-Feb-26 06:29N 48°25' W 123°23'1 2.7
2017-Feb-26 06:00N 48°24' W 123°24'1 2.6 250 / 71013.1 4.1 3.2
2017-Feb-26 05:29N 48°25' W 123°23'1 2.7
2017-Feb-26 05:00N 48°24' W 123°24'0 0.0 250 / 71013.9 4.7 3.2
2017-Feb-26 04:00N 48°24' W 123°24'1 2.3 240 / 61014.7 5.2 3.6
2017-Feb-26 03:26N 48°25' W 123°23'1 3.0
2017-Feb-26 03:00N 48°24' W 123°24'1 1.8 240 / 91015.9 4.8 2.9
2017-Feb-26 02:17N 48°25' W 123°23'1 4.5
2017-Feb-26 02:00N 48°24' W 123°24'1 2.6 260 / 121016.7 5.1 3.4
2017-Feb-26 01:29N 48°25' W 123°23'1 2.7
2017-Feb-26 01:00N 48°24' W 123°24'1 2.0 250 / 141017.7 5.5 2.9
2017-Feb-26 00:20N 48°25' W 123°23'1 3.8
2017-Feb-26 00:00N 48°24' W 123°24'1 2.8 240 / 161018.7 5.0 3.2
2017-Feb-25 23:32N 48°25' W 123°23'1 2.4
2017-Feb-25 23:00N 48°24' W 123°24'1 2.8 250 / 141019.7 6.3 1.5
2017-Feb-25 22:32N 48°25' W 123°23'1 2.4
2017-Feb-25 22:00N 48°24' W 123°24'1 2.6 240 / 151020.2 6.5 0.7
2017-Feb-25 21:29N 48°25' W 123°23'1 2.7
2017-Feb-25 21:00N 48°24' W 123°24'1 1.7 230 / 181021.9 6.7-0.9
2017-Feb-25 20:14N 48°25' W 123°23'1 5.4
2017-Feb-25 20:00N 48°24' W 123°24'0 0.0 240 / 51023.0 4.4 2.5
2017-Feb-25 19:00N 48°24' W 123°24'0 0.0 190 / 71023.4 5.4 1.6
2017-Feb-25 18:00N 48°24' W 123°24'0 0.0 180 / 51024.0 4.5 2.2
2017-Feb-25 17:00N 48°24' W 123°24'0 0.0 1024.6 4.0 1.4
2017-Feb-25 16:00N 48°24' W 123°24'0 0.0 020 / 21024.9 2.7 0.8
2017-Feb-25 15:00N 48°24' W 123°24'1 1.5 020 / 31024.7 2.4 0.5
2017-Feb-25 14:08N 48°25' W 123°23'1 9.3
2017-Feb-25 14:00N 48°24' W 123°24'1 2.8 030 / 41024.7 2.3 0.4
2017-Feb-25 13:32N 48°25' W 123°23'1 2.4
2017-Feb-25 13:00N 48°24' W 123°24'0 0.0 010 / 31025.0 3.0 1.0
2017-Feb-25 12:00N 48°24' W 123°24'0 0.0 300 / 31025.2 3.4 0.1
2017-Feb-25 11:00N 48°24' W 123°24'1 1.7 350 / 31025.5 4.1 0.3
2017-Feb-25 10:14N 48°25' W 123°23'1 5.4
2017-Feb-25 10:00N 48°24' W 123°24'1 2.8 010 / 71025.4 4.4 0.5
2017-Feb-25 09:32N 48°25' W 123°23'1 2.4
2017-Feb-25 09:00N 48°24' W 123°24'1 2.8 010 / 81025.4 4.3 1.1
2017-Feb-25 08:32N 48°25' W 123°23'1 2.4
2017-Feb-25 08:00N 48°24' W 123°24'1 2.8 360 / 91024.9 4.3 1.5
2017-Feb-25 07:32N 48°25' W 123°23'1 2.4
2017-Feb-25 07:00N 48°24' W 123°24'1 2.8 360 / 91024.9 4.9 1.9
2017-Feb-25 06:32N 48°25' W 123°23'1 2.4
2017-Feb-25 06:00N 48°24' W 123°24'0 0.0 360 / 81024.9 5.1 2.3
2017-Feb-25 05:00N 48°24' W 123°24'0 0.0 010 / 101024.6 5.6 2.2
2017-Feb-25 04:00N 48°24' W 123°24'0 0.0 360 / 101023.8 5.4 2.8
2017-Feb-25 03:00N 48°24' W 123°24'1 2.0 010 / 111023.5 5.9 2.6
2017-Feb-25 02:20N 48°25' W 123°23'1 3.8
2017-Feb-25 02:00N 48°24' W 123°24'1 2.3 010 / 91022.9 6.6 1.7
2017-Feb-25 01:26N 48°25' W 123°23'1 3.0
2017-Feb-25 01:00N 48°24' W 123°24'1 2.3 030 / 71022.6 7.0 1.1
2017-Feb-25 00:26N 48°25' W 123°23'1 3.0
2017-Feb-25 00:00N 48°24' W 123°24'0 0.0 040 / 81022.4 7.0 1.5
2017-Feb-24 23:00N 48°24' W 123°24'0 0.0 090 / 91022.0 5.6 1.4 8.8
2017-Feb-24 22:00N 48°24' W 123°24'0 0.0 090 / 81022.0 5.5 1.6 8.8
2017-Feb-24 21:00N 48°24' W 123°24'1 2.5 090 / 101022.0 5.3 1.7 8.6
2017-Feb-24 20:28N 48°25' W 123°23'1 2.8
2017-Feb-24 20:00N 48°24' W 123°24'3 6.9 110 / 141021.6 5.7 3.2 8.3
2017-Feb-24 19:33N 48°21' W 123°24'915.4
2017-Feb-24 19:00N 48°18' W 123°36'510.8 070 / 171020.3 4.4 1.7 8.3
2017-Feb-24 18:33N 48°19' W 123°43'713.0
2017-Feb-24 18:00N 48°18' W 123°54'716.4 080 / 141019.9 4.5 2.2 8.3
2017-Feb-24 17:33N 48°22' W 124°03'711.5
2017-Feb-24 17:00N 48°24' W 124°12'716.4 100 / 91019.6 4.1 1.6 8.3
2017-Feb-24 16:33N 48°28' W 124°21'611.0
2017-Feb-24 16:00N 48°30' W 124°30'716.0 120 / 121019.3 2.5 2.3 8.2
2017-Feb-24 15:33N 48°33' W 124°40'611.4
2017-Feb-24 15:00N 48°36' W 124°48'715.2 140 / 121018.8 3.1 2.9 8.6
2017-Feb-24 14:33N 48°37' W 124°58'712.7
2017-Feb-24 14:00N 48°42' W 125°06'510.7 100 / 151018.6 3.3 2.3 8.9
2017-Feb-24 13:33N 48°41' W 125°13'3 5.9
2017-Feb-24 13:00N 48°42' W 125°18'716.5 070 / 51018.8 2.7 1.5 8.6
2017-Feb-24 12:33N 48°49' W 125°16'6 9.9
2017-Feb-24 12:00N 48°54' W 125°12'511.5 080 / 91019.1 3.2 0.6 7.5
2017-Feb-24 11:33N 48°57' W 125°18'3 5.5
2017-Feb-24 11:00N 48°54' W 125°18'510.4 340 / 61019.4 3.2 0.1
2017-Feb-24 10:31N 48°59' W 125°19'5 9.2
2017-Feb-24 10:00N 48°54' W 125°18'510.3 070 / 81019.7 4.0-0.6
2017-Feb-24 09:31N 48°59' W 125°19'5 9.1
2017-Feb-24 09:00N 48°54' W 125°18'510.3 030 / 51020.1 3.2 1.2
2017-Feb-24 08:31N 48°59' W 125°19'5 9.1
2017-Feb-24 08:00N 48°54' W 125°18'510.4 030 / 61020.4 2.9 0.6
2017-Feb-24 07:31N 48°59' W 125°19'5 9.2
2017-Feb-24 07:00N 48°54' W 125°18'510.4 070 / 21020.7 2.9 1.2
2017-Feb-24 06:31N 48°59' W 125°19'5 9.2
2017-Feb-24 06:00N 48°54' W 125°18'510.3 020 / 41021.3 3.0 0.6
2017-Feb-24 05:31N 48°59' W 125°19'5 9.2
2017-Feb-24 05:00N 48°54' W 125°18'510.4 040 / 51021.4 3.7 0.3
2017-Feb-24 04:31N 48°59' W 125°19'5 9.2
2017-Feb-24 04:00N 48°54' W 125°18'0 0.0 360 / 11021.7 4.0-1.2
2017-Feb-24 03:00N 48°54' W 125°18'510.4 110 / 61022.2 4.4-1.9
2017-Feb-24 02:31N 48°59' W 125°19'5 9.2
2017-Feb-24 02:00N 48°54' W 125°18'510.4 250 / 61022.7 5.3-2.6
2017-Feb-24 01:31N 48°59' W 125°19'5 9.2
2017-Feb-24 01:00N 48°54' W 125°18'510.4 240 / 111023.3 5.7 0.3
2017-Feb-24 00:31N 48°59' W 125°19'5 9.2
2017-Feb-24 00:00N 48°54' W 125°18'5 9.4 230 / 101023.5 6.4 0.1
2017-Feb-23 23:28N 48°59' W 125°19'510.2
2017-Feb-23 23:00N 48°54' W 125°18'510.4 220 / 101023.8 6.2 0.4
2017-Feb-23 22:31N 48°59' W 125°19'5 9.2
2017-Feb-23 22:00N 48°54' W 125°18'510.4 220 / 91024.2 6.2 0.1
2017-Feb-23 21:31N 48°59' W 125°19'5 9.2
2017-Feb-23 21:00N 48°54' W 125°18'510.4 220 / 61024.6 6.2-1.1
2017-Feb-23 20:31N 48°59' W 125°19'5 9.2
2017-Feb-23 20:00N 48°54' W 125°18'510.4 180 / 41025.3 5.9-0.8
2017-Feb-23 19:31N 48°59' W 125°19'5 9.2
2017-Feb-23 19:00N 48°54' W 125°18'510.4 160 / 41025.5 4.1 0.6
2017-Feb-23 18:31N 48°59' W 125°19'5 9.2
2017-Feb-23 18:00N 48°54' W 125°18'5 9.3 190 / 21025.2 3.7 1.4
2017-Feb-23 17:28N 48°59' W 125°19'510.1
2017-Feb-23 17:00N 48°54' W 125°18'510.3 140 / 11024.9 4.4 2.8
2017-Feb-23 16:31N 48°59' W 125°19'5 9.1
2017-Feb-23 16:00N 48°54' W 125°18'510.3 320 / 21024.8 2.3 1.9
2017-Feb-23 15:31N 48°59' W 125°19'5 9.1
2017-Feb-23 15:00N 48°54' W 125°18'510.3 090 / 11024.5 1.4 1.3
2017-Feb-23 14:31N 48°59' W 125°19'5 9.1
2017-Feb-23 14:00N 48°54' W 125°18'510.3 030 / 21024.3 1.5 1.3
2017-Feb-23 13:31N 48°59' W 125°19'5 9.1
2017-Feb-23 13:00N 48°54' W 125°18'510.3 020 / 41024.3 1.9 1.6
2017-Feb-23 12:31N 48°59' W 125°19'5 9.1
2017-Feb-23 12:00N 48°54' W 125°18'510.3 350 / 21024.1 1.7 1.5
2017-Feb-23 11:31N 48°59' W 125°19'5 9.1
2017-Feb-23 11:00N 48°54' W 125°18'510.3 080 / 11024.1 1.9 1.8
2017-Feb-23 10:31N 48°59' W 125°19'5 9.1
2017-Feb-23 10:00N 48°54' W 125°18'510.3 020 / 31024.0 1.9 1.7
2017-Feb-23 09:31N 48°59' W 125°19'5 9.1
2017-Feb-23 09:00N 48°54' W 125°18'5 9.3 020 / 31024.0 2.3 2.1
2017-Feb-23 08:28N 48°59' W 125°19'510.1
2017-Feb-23 08:00N 48°54' W 125°18'510.3 060 / 31023.9 2.5 2.3
2017-Feb-23 07:31N 48°59' W 125°19'5 9.1
2017-Feb-23 07:00N 48°54' W 125°18'5 6.3 010 / 51023.7 2.9 2.5
2017-Feb-23 06:13N 48°59' W 125°19'521.0
2017-Feb-23 06:00N 48°54' W 125°18'5 9.3 020 / 61023.6 3.4 2.9
2017-Feb-23 05:28N 48°59' W 125°19'510.1
2017-Feb-23 05:00N 48°54' W 125°18'510.3 360 / 51023.2 3.9 3.1
2017-Feb-23 04:31N 48°59' W 125°19'5 9.1
2017-Feb-23 04:00N 48°54' W 125°18'510.3 060 / 31023.2 4.7 3.5 7.9
2017-Feb-23 03:31N 48°59' W 125°19'5 9.1
2017-Feb-23 03:00N 48°54' W 125°18'5 9.3 040 / 41023.2 4.9 3.6 7.9
2017-Feb-23 02:28N 48°59' W 125°19'510.1
2017-Feb-23 02:00N 48°54' W 125°18'510.5 360 / 61023.0 5.8 2.5 8.3
2017-Feb-23 01:32N 48°59' W 125°19'610.2
2017-Feb-23 01:00N 48°54' W 125°24'3 6.4 290 / 91022.8 5.7 2.7 8.6
2017-Feb-23 00:34N 48°52' W 125°27'610.7
2017-Feb-23 00:00N 48°54' W 125°36'2 5.0 290 / 81023.0 6.6 2.6 8.7
2017-Feb-22 23:33N 48°55' W 125°33'610.7
2017-Feb-22 23:00N 48°54' W 125°42'4 8.4 270 / 81022.9 6.6 2.8 8.9
2017-Feb-22 22:33N 48°57' W 125°40'4 6.5
2017-Feb-22 22:00N 48°54' W 125°42'4 8.7 200 / 41022.8 6.6 3.3 8.9
2017-Feb-22 21:33N 48°57' W 125°40'4 6.7
2017-Feb-22 21:00N 48°54' W 125°42'4 8.1 180 / 71022.7 5.9 3.6 8.6
2017-Feb-22 20:33N 48°57' W 125°39'611.3
2017-Feb-22 20:00N 48°54' W 125°30'1 2.9 140 / 41022.8 5.4 3.3 8.2
2017-Feb-22 19:33N 48°55' W 125°31'1 2.2
2017-Feb-22 19:00N 48°54' W 125°30'2 3.8 120 / 71022.7 4.9 3.3
2017-Feb-22 18:33N 48°55' W 125°32'2 2.9
2017-Feb-22 18:00N 48°54' W 125°30'2 3.8 110 / 81022.5 4.5 2.3 8.4
2017-Feb-22 17:34N 48°55' W 125°32'2 2.9
2017-Feb-22 17:00N 48°54' W 125°30'2 3.7 080 / 81022.2 4.3 2.1 8.9
2017-Feb-22 16:34N 48°55' W 125°32'2 2.9
2017-Feb-22 16:00N 48°54' W 125°30'1 2.7 080 / 41022.1 3.4 2.8 8.3
2017-Feb-22 15:33N 48°55' W 125°31'1 2.1
2017-Feb-22 15:00N 48°54' W 125°30'4 8.4 060 / 81021.7 3.7 3.3 8.3
2017-Feb-22 14:33N 48°53' W 125°35'4 7.8
2017-Feb-22 14:00N 48°54' W 125°42'3 7.4 050 / 41021.8 4.1 3.4 8.4
2017-Feb-22 13:33N 48°57' W 125°45'3 6.0
2017-Feb-22 13:00N 48°54' W 125°48'716.2 040 / 51021.9 5.0 3.9 8.5
2017-Feb-22 12:33N 49°00' W 125°53'0 0.6
2017-Feb-22 12:00N 49°00' W 125°54'614.8 320 / 121021.8 5.1 2.5 8.5
2017-Feb-22 11:33N 49°03' W 126°03'4 6.4
2017-Feb-22 11:00N 49°06' W 126°06'8 7.9 330 / 81021.7 5.0 2.2 8.5
2017-Feb-22 10:00N 49°06' W 126°18'7 7.2 260 / 111021.7 5.4 3.0 8.7
2017-Feb-22 09:00N 49°12' W 126°24'8 7.8 320 / 111021.3 6.0 2.0 8.8
2017-Feb-22 08:00N 49°12' W 126°36'10 9.9 320 / 131020.8 6.1 1.6 8.5
2017-Feb-22 07:00N 49°18' W 126°48'7 7.2 320 / 141020.7 6.3 1.7 8.5
2017-Feb-22 06:00N 49°24' W 126°54'6 6.0 310 / 151020.2 6.8 1.7 8.5
2017-Feb-22 05:00N 49°30' W 126°54'1312.6 310 / 181019.5 6.7 3.2 8.3
2017-Feb-22 04:00N 49°42' W 127°00'6 6.0 320 / 161019.0 6.2 3.2 8.1
2017-Feb-22 03:00N 49°48' W 127°00'0 0.0 310 / 141018.4 5.9 3.1 7.8
2017-Feb-22 02:00N 49°48' W 127°00'0 0.0 280 / 141017.4 6.4 1.7
2017-Feb-22 01:00N 49°48' W 127°00'0 0.0 270 / 131017.0 6.5 2.8
2017-Feb-22 00:00N 49°48' W 127°00'0 0.0 260 / 161016.4 6.7 2.7
2017-Feb-21 23:00N 49°48' W 127°00'0 0.0 260 / 151015.9 6.9 2.4
2017-Feb-21 22:00N 49°48' W 127°00'0 0.0 270 / 81015.5 6.2 2.0
2017-Feb-21 21:00N 49°48' W 127°00'0 0.0 240 / 41015.5 7.3 3.6
2017-Feb-21 20:00N 49°48' W 127°00'0 0.0 030 / 31015.2 5.7 2.8
2017-Feb-21 19:00N 49°48' W 127°00'0 0.0 110 / 31014.4 4.9 2.1
2017-Feb-21 18:00N 49°48' W 127°00'0 0.0 090 / 71013.4 3.7 2.1 7.4
2017-Feb-21 17:00N 49°48' W 127°00'0 0.0 070 / 81012.5 2.4 1.5 7.4
2017-Feb-21 16:00N 49°48' W 127°00'4 3.9 070 / 81011.6 1.9 1.2 7.5
2017-Feb-21 15:00N 49°48' W 127°06'4 3.9 060 / 111011.2 3.3 2.5 7.8
2017-Feb-21 14:00N 49°48' W 127°12'10 9.8 100 / 21010.9 4.0 2.6 7.7
2017-Feb-21 13:00N 49°54' W 127°24'1211.6 050 / 61010.5 4.4 2.5 7.4
2017-Feb-21 12:00N 49°54' W 127°42'8 7.7 070 / 21010.2 5.1 2.6 7.5
2017-Feb-21 11:00N 49°54' W 127°54'1414.3 100 / 61009.9 5.3 3.0 7.6
2017-Feb-21 10:00N 50°06' W 128°06'1312.6 300 / 51009.4 6.1 2.0 8.0
2017-Feb-21 09:00N 50°18' W 128°12'7 7.1 290 / 181009.1 5.2 2.8 8.0
2017-Feb-21 08:00N 50°24' W 128°18'1414.2 250 / 91008.1 6.2 1.8 8.4
2017-Feb-21 07:00N 50°36' W 128°30'1212.0 240 / 81007.7 6.2 2.1 8.3
2017-Feb-21 06:00N 50°48' W 128°30'10 9.7 210 / 121007.1 5.8 2.2 8.2
2017-Feb-21 05:00N 50°54' W 128°18'511.8 190 / 71006.9 4.8 2.2 8.4
2017-Feb-21 04:33N 50°55' W 128°10'611.3
2017-Feb-21 04:00N 50°54' W 128°00'613.5 210 / 101006.7 5.7 1.4 8.2
2017-Feb-21 03:32N 50°59' W 127°54'611.4
2017-Feb-21 03:00N 50°54' W 127°48'613.1 220 / 21006.6 5.2 3.9 8.1
2017-Feb-21 02:33N 50°54' W 127°39'814.9
2017-Feb-21 02:00N 50°48' W 127°30'2 4.9 290 / 71006.0 5.4 3.2 8.0
2017-Feb-21 01:33N 50°47' W 127°27'610.5
2017-Feb-21 01:00N 50°42' W 127°30'2 4.6 320 / 71005.7 5.7 2.5 8.2
2017-Feb-21 00:32N 50°44' W 127°28'2 4.0
2017-Feb-21 00:00N 50°42' W 127°30'4 8.2 030 / 41005.1 6.5 1.9 8.1
2017-Feb-20 23:32N 50°46' W 127°28'5 9.9
2017-Feb-20 23:00N 50°48' W 127°36'511.3 130 / 51004.5 6.5 2.4 8.2
2017-Feb-20 22:33N 50°53' W 127°37'3 5.8
2017-Feb-20 22:00N 50°54' W 127°42'818.3 130 / 31004.3 6.4 2.4 8.2
2017-Feb-20 21:33N 51°01' W 127°37'2 2.8
2017-Feb-20 21:00N 51°00' W 127°36'2 4.9 140 / 51004.0 6.4 2.1 8.0
2017-Feb-20 20:33N 51°02' W 127°38'2 3.8
2017-Feb-20 20:00N 51°00' W 127°36'2 5.2 110 / 51003.8 5.8 4.9 7.9
2017-Feb-20 19:33N 51°02' W 127°37'2 4.0
2017-Feb-20 19:00N 51°00' W 127°36'1 3.4 090 / 71003.0 5.0 4.9 7.9
2017-Feb-20 18:33N 50°59' W 127°38'5 9.7
2017-Feb-20 18:00N 50°54' W 127°36'   110 / 51002.6 5.1 3.6 8.0

Dump ship's entire track history